Terminal Aerodrome Forecast
Issued by NWS

Home | Current Version | Previous Version | Text Only | Print | Product List | Glossary On
Versions: 1 2 3 4 5 6 7 8 9 10 11 12 13 14 15 16 17 18 19 20 21 22 23 24 25 26 27 28 29 30 31 32 33 34
000
FTUS45 KPSR 290344 AAB
TAFIWA
TAF AMD
KIWA 290344Z 2904/2924 13007KT P6SM SCT110 BKN200
      TEMPO 2904/2906 18018G28KT 1SM BLDU BKN150
     FM291800 28009KT P6SM SCT100 SCT150 BKN200
      AMD LTD TO CLD VIS AND WIND TIL 291300=

USA.gov is the U.S. government's official web portal to all federal, state and local government web resources and services.